Hlavní strana
METAR-TAF:

METAR-TAF

Letiště :

Karup, Dánsko

zeměpisná šířka: 56-18N, zeměpisná délka: 009-07E, výška: 52 m

Aktuální stav počasí

Zpráva byla vytvořena před 27 minutami, v 15:56 UTC
Východoseverovýchodní vítr 9 kt, proměnlivý mezi severním a východním
Teplota 5°C
Vlhkost vzduchu 93%
Tlak 1035 hPa
Viditelnost 10 km a více

METAR: EKKA 181556Z AUTO 06009KT 360V080 9999NDV BKN014/// 05/04 Q1035

Čas: 17:23 (16:23 UTC)

Předpověď počasí

Zpráva byla vytvořena před 25 minutami, v 15:58 UTC
Předpověď platná od 18 v 15 UTC do 19 v 12 UTC
Severovýchodní vítr 8 kt
Viditelnost 10 km a více
Oblačno až skoro zataženo ve výšce 1800 ft
Dočasný
od 18 v 15 UTC do 18 v 18 UTC
Oblačno až skoro zataženo ve výšce 1200 ft
Dočasný
od 19 v 09 UTC do 19 v 12 UTC
Severovýchodní vítr 12 kt s nárazy do 22 kt

TAF: EKKA 181558Z 1815/1912 04008KT 9999 BKN018 TEMPO 1815/1818 BKN012 TEMPO 1909/1912 05012G22KT

Stav a předpovědi počasí z více než 4 000 letišť (zprávy METAR a TAF).

Červené a žluté tečky na mapě představují dostupné meteorologické stanice.

Když kurzor umístíte na tečku, zobrazí se název stanice.

Pak kliknutím zobrazíte stav a předpověď počasí.

Chcete-li změnit mapu, kliknutím na zelené tlačítko se znaménkem +mapu přiblížíte, kliknutím na zelené tlačítko se znaménkem – mapu oddálíte a kliknutím na zelené šipky přejdete na sousední mapy.


METAR-TAF: